Time;durP1;ratioP1;P1;durP2;ratioP2;P2;SDS_P1;SDS_P2;PMS_P1;PMS_P2;Temp;Humidity;BMP_temperature;BMP_pressure;BME280_temperature;BME280_humidity;BME280_pressure;Samples;Min_cycle;Max_cycle;Signal;HPM_P1;HPM_P2
2023/01/08 00:02:09;;;;;;;5.45;1.98;;;9.80;99.90;;;;;;5008544;28;20080;-83
2023/01/08 00:04:38;;;;;;;4.00;1.90;;;9.80;99.90;;;;;;5012081;28;20037;-82
2023/01/08 00:07:04;;;;;;;3.55;1.98;;;9.80;99.90;;;;;;5045690;28;20128;-83
2023/01/08 00:09:29;;;;;;;2.25;1.45;;;9.80;99.90;;;;;;5027116;28;20128;-83
2023/01/08 00:11:55;;;;;;;4.28;1.52;;;10.50;99.90;;;;;;5011352;28;20045;-83
2023/01/08 00:14:21;;;;;;;4.97;1.85;;;9.90;99.90;;;;;;5027566;28;20036;-83
2023/01/08 00:16:47;;;;;;;4.03;1.88;;;9.90;99.90;;;;;;5010787;28;20408;-83
2023/01/08 00:19:13;;;;;;;4.32;1.90;;;9.90;99.90;;;;;;5010270;28;20115;-83
2023/01/08 00:21:39;;;;;;;5.53;2.05;;;10.60;99.90;;;;;;4995189;28;20041;-83
2023/01/08 00:24:05;;;;;;;2.55;1.83;;;9.90;99.90;;;;;;5027141;28;20076;-83
2023/01/08 00:26:31;;;;;;;4.40;1.95;;;9.90;99.90;;;;;;5045030;28;20055;-83
2023/01/08 00:28:56;;;;;;;5.30;1.60;;;9.90;99.90;;;;;;5010708;28;20045;-82
2023/01/08 00:31:22;;;;;;;3.20;1.45;;;9.90;99.90;;;;;;4994335;28;20147;-82
2023/01/08 00:33:48;;;;;;;7.72;1.70;;;9.90;99.90;;;;;;5045125;28;20041;-83
2023/01/08 00:36:16;;;;;;;4.32;1.67;;;9.90;99.90;;;;;;4994235;28;20068;-83
2023/01/08 00:38:43;;;;;;;3.63;1.80;;;9.90;99.90;;;;;;5027079;28;20041;-84
2023/01/08 00:41:11;;;;;;;5.13;1.90;;;9.90;99.90;;;;;;5026586;28;20049;-84
2023/01/08 00:43:36;;;;;;;3.53;1.50;;;9.90;99.90;;;;;;5010711;28;20048;-83
2023/01/08 00:46:02;;;;;;;2.78;1.92;;;9.90;99.90;;;;;;5027928;28;20044;-83
2023/01/08 00:48:29;;;;;;;4.07;1.75;;;9.90;99.90;;;;;;5010466;28;20481;-82
2023/01/08 00:50:55;;;;;;;3.22;1.42;;;10.50;99.90;;;;;;5045085;28;20049;-82
2023/01/08 00:53:22;;;;;;;2.47;1.25;;;9.60;99.90;;;;;;5045269;28;20043;-83
2023/01/08 00:55:48;;;;;;;4.07;1.60;;;9.80;99.90;;;;;;5027376;28;20075;-83
2023/01/08 00:58:14;;;;;;;4.40;1.83;;;10.00;99.90;;;;;;5010544;28;20040;-84
2023/01/08 01:00:40;;;;;;;7.93;1.90;;;9.90;99.90;;;;;;5026574;28;20140;-83
2023/01/08 01:03:06;;;;;;;2.78;1.83;;;9.80;99.90;;;;;;4994506;28;20127;-83
2023/01/08 01:05:32;;;;;;;5.47;1.90;;;9.80;99.90;;;;;;5026700;28;20079;-83
2023/01/08 01:07:58;;;;;;;5.78;2.38;;;10.30;99.90;;;;;;4978096;28;20084;-83
2023/01/08 01:10:23;;;;;;;4.07;1.75;;;10.40;99.90;;;;;;5026791;28;20051;-83
2023/01/08 01:12:49;;;;;;;5.65;2.00;;;9.70;99.90;;;;;;5027129;28;20069;-83
2023/01/08 01:15:17;;;;;;;3.17;1.88;;;10.70;99.90;;;;;;5025847;28;20089;-83
2023/01/08 01:17:44;;;;;;;10.82;1.92;;;9.70;99.90;;;;;;5027113;28;20397;-82
2023/01/08 01:20:13;;;;;;;5.45;1.40;;;9.70;99.90;;;;;;5026434;28;20048;-83
2023/01/08 01:22:39;;;;;;;5.53;1.30;;;9.80;99.90;;;;;;5008850;28;20052;-83
2023/01/08 01:25:08;;;;;;;2.42;1.50;;;9.60;99.90;;;;;;5010326;28;20129;-81
2023/01/08 01:27:35;;;;;;;3.33;1.40;;;9.60;99.90;;;;;;5009535;28;20033;-83
2023/01/08 01:30:01;;;;;;;6.70;1.45;;;9.60;99.90;;;;;;5026740;28;20049;-83
2023/01/08 01:32:26;;;;;;;3.38;1.42;;;10.40;99.90;;;;;;4978008;28;20049;-83
2023/01/08 01:34:52;;;;;;;4.45;1.45;;;9.60;99.90;;;;;;5044436;28;20056;-84
2023/01/08 01:37:18;;;;;;;4.88;1.50;;;9.60;99.90;;;;;;4993619;28;20453;-84
2023/01/08 01:39:45;;;;;;;5.43;1.60;;;9.60;99.90;;;;;;5009449;28;20051;-83
2023/01/08 01:45:01;;;;;;;4.97;1.17;;;9.70;99.90;;;;;;5026326;28;20396;-84
2023/01/08 01:47:39;;;;;;;3.83;1.48;;;9.70;99.90;;;;;;5010298;28;20393;-84
2023/01/08 01:50:13;;;;;;;4.38;1.60;;;9.70;99.90;;;;;;5025942;28;20051;-82
2023/01/08 01:53:04;;;;;;;5.43;1.60;;;9.70;99.90;;;;;;5025420;28;20053;-83
2023/01/08 01:55:31;;;;;;;4.10;1.25;;;9.70;99.90;;;;;;5016232;28;20409;-83
2023/01/08 01:58:05;;;;;;;4.63;1.63;;;9.70;99.90;;;;;;5025631;28;20069;-83
2023/01/08 02:00:33;;;;;;;4.63;1.52;;;9.60;99.90;;;;;;5009467;28;20175;-83
2023/01/08 02:02:59;;;;;;;2.15;1.48;;;9.60;99.90;;;;;;5009676;28;20049;-83
2023/01/08 02:05:38;;;;;;;2.58;1.63;;;9.80;99.90;;;;;;5026319;28;20080;-83
2023/01/08 02:08:11;;;;;;;2.47;1.40;;;9.50;99.90;;;;;;5010037;28;20048;-84
2023/01/08 02:10:56;;;;;;;5.07;2.10;;;9.50;99.90;;;;;;5009548;28;20040;-82
2023/01/08 02:13:28;;;;;;;5.70;1.60;;;10.20;99.90;;;;;;5009816;28;20056;-83
2023/01/08 02:16:11;;;;;;;6.38;1.80;;;9.90;99.90;;;;;;5025678;28;20052;-83
2023/01/08 02:18:47;;;;;;;7.80;1.42;;;9.40;99.90;;;;;;5025504;28;20049;-83
2023/01/08 02:21:20;;;;;;;6.25;1.65;;;9.40;99.90;;;;;;5009544;28;20609;-85
2023/01/08 02:23:57;;;;;;;6.60;1.88;;;9.40;99.90;;;;;;5025085;28;20051;-83
2023/01/08 02:26:26;;;;;;;6.00;1.25;;;9.40;99.90;;;;;;5024455;28;20560;-83
2023/01/08 02:29:09;;;;;;;7.10;1.92;;;10.50;99.90;;;;;;5009417;28;20095;-84
2023/01/08 02:31:38;;;;;;;7.88;1.13;;;9.40;99.90;;;;;;5026016;28;20037;-84
2023/01/08 02:34:05;;;;;;;6.90;1.13;;;9.30;99.90;;;;;;5026168;28;20178;-83
2023/01/08 02:36:54;;;;;;;8.35;1.98;;;9.80;99.90;;;;;;4992893;28;20066;-83
2023/01/08 02:39:45;;;;;;;8.82;1.40;;;9.30;99.90;;;;;;5025695;28;20037;-84
2023/01/08 02:42:28;;;;;;;3.97;0.90;;;9.20;99.90;;;;;;5009057;28;20045;-83
2023/01/08 02:45:30;;;;;;;5.90;1.42;;;9.20;99.90;;;;;;5043136;28;20048;-84
2023/01/08 02:48:10;;;;;;;9.70;1.48;;;9.20;99.90;;;;;;5024990;28;20497;-83
2023/01/08 02:50:54;;;;;;;4.45;1.10;;;9.20;99.90;;;;;;5009245;28;20280;-83
2023/01/08 02:53:25;;;;;;;8.85;1.23;;;9.10;99.90;;;;;;5009163;28;20384;-83
2023/01/08 02:56:02;;;;;;;13.68;1.50;;;9.10;99.90;;;;;;5009329;28;20118;-83
2023/01/08 02:58:32;;;;;;;6.70;1.27;;;9.00;99.90;;;;;;5043417;28;20048;-83
2023/01/08 03:01:00;;;;;;;9.73;1.45;;;9.30;99.90;;;;;;5008549;28;20111;-82
2023/01/08 03:03:28;;;;;;;10.77;1.27;;;8.90;99.90;;;;;;5025677;28;20041;-83
2023/01/08 03:06:11;;;;;;;10.70;1.30;;;8.90;99.90;;;;;;5043100;28;20049;-84
2023/01/08 03:08:42;;;;;;;7.72;2.28;;;8.90;99.90;;;;;;5043723;28;20369;-83
2023/01/08 03:11:14;;;;;;;12.90;1.20;;;8.80;99.90;;;;;;5008623;28;20037;-83
2023/01/08 03:13:59;;;;;;;10.93;1.00;;;8.80;99.90;;;;;;5024560;28;20052;-83
2023/01/08 03:16:47;;;;;;;11.95;1.27;;;9.80;99.90;;;;;;5021484;28;20053;-83
2023/01/08 03:19:30;;;;;;;11.63;1.80;;;8.80;99.90;;;;;;5021056;28;20493;-84
2023/01/08 03:21:57;;;;;;;13.07;2.65;;;8.70;99.90;;;;;;5005067;28;20456;-83
2023/01/08 03:24:27;;;;;;;8.13;1.25;;;8.70;99.90;;;;;;4988978;28;20056;-83
2023/01/08 03:26:57;;;;;;;8.90;1.50;;;8.70;99.90;;;;;;5022701;28;20385;-82
2023/01/08 03:29:24;;;;;;;7.03;1.20;;;9.10;99.90;;;;;;5022735;28;20125;-82
2023/01/08 03:31:53;;;;;;;12.55;1.33;;;8.60;99.90;;;;;;5004238;28;20054;-82
2023/01/08 03:34:20;;;;;;;8.60;1.45;;;8.60;99.90;;;;;;5004869;28;20041;-81
2023/01/08 03:36:50;;;;;;;11.50;1.50;;;8.60;99.90;;;;;;5020991;28;20049;-83
2023/01/08 03:39:29;;;;;;;12.70;1.55;;;8.60;99.90;;;;;;5007959;28;20041;-83
2023/01/08 03:41:59;;;;;;;10.27;1.52;;;8.60;99.90;;;;;;5026440;28;20053;-83
2023/01/08 03:44:25;;;;;;;5.30;1.40;;;8.60;99.90;;;;;;5024845;28;20050;-84
2023/01/08 03:46:54;;;;;;;10.18;1.52;;;9.10;99.90;;;;;;5025930;28;20047;-83
2023/01/08 03:49:23;;;;;;;3.03;0.95;;;9.80;99.90;;;;;;5008207;28;20048;-83
2023/01/08 03:51:49;;;;;;;11.90;2.03;;;8.60;99.90;;;;;;5025338;28;20046;-83
2023/01/08 03:54:18;;;;;;;7.82;1.30;;;8.60;99.90;;;;;;4992453;28;20099;-84
2023/01/08 03:56:45;;;;;;;8.85;2.25;;;9.50;99.90;;;;;;5024487;28;20049;-84
2023/01/08 03:59:12;;;;;;;6.78;1.05;;;9.10;99.90;;;;;;5008724;28;20397;-83
2023/01/08 04:01:38;;;;;;;10.77;1.20;;;8.60;99.90;;;;;;5024211;28;20481;-83
2023/01/08 04:04:04;;;;;;;14.70;2.08;;;8.60;99.90;;;;;;4992290;28;20125;-84
2023/01/08 04:06:30;;;;;;;33.90;5.00;;;9.60;99.90;;;;;;5024021;28;20049;-83
2023/01/08 04:08:56;;;;;;;11.73;1.60;;;9.10;99.90;;;;;;5024658;28;20052;-83
2023/01/08 04:11:22;;;;;;;7.50;1.08;;;8.60;99.90;;;;;;5007967;28;20211;-83
2023/01/08 04:13:48;;;;;;;15.85;1.52;;;8.50;99.90;;;;;;5007722;28;20126;-83
2023/01/08 04:16:13;;;;;;;7.15;1.75;;;8.50;99.90;;;;;;5023910;28;20409;-83
2023/01/08 04:18:39;;;;;;;8.25;1.38;;;8.50;99.90;;;;;;5024716;28;20425;-84
2023/01/08 04:21:08;;;;;;;5.15;1.13;;;8.50;99.90;;;;;;5025261;28;20462;-83
2023/01/08 04:23:34;;;;;;;6.72;1.02;;;8.50;99.90;;;;;;5023556;28;20107;-83
2023/01/08 04:26:04;;;;;;;8.93;1.35;;;9.60;99.90;;;;;;5007816;28;20046;-83
2023/01/08 04:28:30;;;;;;;8.63;1.48;;;8.40;99.90;;;;;;5023906;28;20045;-83
2023/01/08 04:30:56;;;;;;;8.50;1.27;;;8.40;99.90;;;;;;5023465;28;20133;-83
2023/01/08 04:33:22;;;;;;;10.13;1.63;;;8.40;99.90;;;;;;5024024;28;20143;-82
2023/01/08 04:35:47;;;;;;;7.00;1.10;;;7.90;99.90;;;;;;5023723;28;20060;-83
2023/01/08 04:38:13;;;;;;;8.10;1.50;;;9.10;99.90;;;;;;4990883;28;20042;-83
2023/01/08 04:40:39;;;;;;;6.95;1.50;;;8.60;99.90;;;;;;5006802;28;20053;-83
2023/01/08 04:43:04;;;;;;;6.57;1.63;;;9.40;99.90;;;;;;5007692;28;20038;-83
2023/01/08 04:45:30;;;;;;;6.97;1.80;;;8.30;99.90;;;;;;5023579;28;20061;-83
2023/01/08 04:47:57;;;;;;;3.72;1.50;;;8.40;99.90;;;;;;4990524;28;20049;-83
2023/01/08 04:50:23;;;;;;;9.43;1.67;;;8.40;99.90;;;;;;5006449;28;20476;-84
2023/01/08 04:52:49;;;;;;;8.73;1.60;;;8.40;99.90;;;;;;4991315;28;20057;-83
2023/01/08 04:55:15;;;;;;;10.30;1.15;;;8.10;99.90;;;;;;5007125;28;20049;-84
2023/01/08 04:57:41;;;;;;;4.47;1.70;;;8.40;99.90;;;;;;5022889;28;20084;-83
2023/01/08 05:00:07;;;;;;;13.43;2.00;;;8.40;99.90;;;;;;5006664;28;20085;-83
2023/01/08 05:02:33;;;;;;;6.88;1.70;;;8.40;99.90;;;;;;5006510;28;20046;-84
2023/01/08 05:04:59;;;;;;;6.38;1.65;;;8.40;99.90;;;;;;5023964;28;20049;-84
2023/01/08 05:07:25;;;;;;;6.60;1.73;;;8.40;99.90;;;;;;5007117;28;20139;-83
2023/01/08 05:09:51;;;;;;;2.95;1.30;;;8.90;99.90;;;;;;5024845;28;20072;-83
2023/01/08 05:12:17;;;;;;;7.15;2.10;;;8.40;99.90;;;;;;4991472;28;20041;-83
2023/01/08 05:14:43;;;;;;;5.32;1.98;;;9.20;99.90;;;;;;5006818;28;20073;-83
2023/01/08 05:17:09;;;;;;;3.92;1.70;;;8.40;99.90;;;;;;5025515;28;20129;-83
2023/01/08 05:19:34;;;;;;;5.85;1.23;;;8.30;99.90;;;;;;5006024;28;20081;-82
2023/01/08 05:22:00;;;;;;;6.65;1.55;;;9.20;99.90;;;;;;4990156;28;20046;-84
2023/01/08 05:24:25;;;;;;;3.75;1.20;;;8.30;99.90;;;;;;5022905;28;20516;-83
2023/01/08 05:26:51;;;;;;;6.40;1.98;;;8.40;99.90;;;;;;5006305;28;20041;-84
2023/01/08 05:29:17;;;;;;;4.75;1.55;;;8.40;99.90;;;;;;5006037;28;20440;-83
2023/01/08 05:31:43;;;;;;;3.13;1.30;;;8.40;99.90;;;;;;4974599;28;20099;-83
2023/01/08 05:34:09;;;;;;;3.35;1.45;;;8.90;99.90;;;;;;4990669;28;20085;-82
2023/01/08 05:36:35;;;;;;;6.55;1.80;;;8.40;99.90;;;;;;5021989;28;20422;-84
2023/01/08 05:39:01;;;;;;;9.02;1.77;;;8.40;99.90;;;;;;5022453;28;20053;-83
2023/01/08 05:41:27;;;;;;;7.60;1.70;;;8.50;99.90;;;;;;5022795;28;20087;-83
2023/01/08 05:43:52;;;;;;;3.15;1.60;;;8.40;99.90;;;;;;4989602;28;20599;-83
2023/01/08 05:46:18;;;;;;;8.43;1.95;;;8.50;99.90;;;;;;5006131;28;20042;-83
2023/01/08 05:48:44;;;;;;;2.47;1.40;;;8.50;99.90;;;;;;5005684;28;20094;-83
2023/01/08 05:51:10;;;;;;;7.10;1.63;;;8.50;99.90;;;;;;5006278;28;20122;-83
2023/01/08 05:53:36;;;;;;;7.05;1.27;;;9.70;99.90;;;;;;4988992;28;20183;-83
2023/01/08 05:56:04;;;;;;;4.88;1.60;;;8.50;99.90;;;;;;5022748;28;20445;-83
2023/01/08 05:58:33;;;;;;;7.18;1.20;;;8.50;99.90;;;;;;5023133;28;20401;-82
2023/01/08 06:01:04;;;;;;;11.60;1.95;;;8.50;99.90;;;;;;5006083;28;20076;-83
2023/01/08 06:03:30;;;;;;;6.95;1.55;;;8.90;99.90;;;;;;5024446;28;20128;-82
2023/01/08 06:06:00;;;;;;;6.90;1.13;;;7.50;99.90;;;;;;4989688;28;20153;-83
2023/01/08 06:08:27;;;;;;;5.35;1.30;;;8.50;99.90;;;;;;5006517;28;20053;-83
2023/01/08 06:10:52;;;;;;;6.18;1.30;;;8.50;99.90;;;;;;5005487;28;20053;-82
2023/01/08 06:13:18;;;;;;;4.88;1.48;;;9.00;99.90;;;;;;5023924;28;20091;-83
2023/01/08 06:15:44;;;;;;;4.57;1.40;;;8.50;99.90;;;;;;5037227;28;20138;-82
2023/01/08 06:18:10;;;;;;;3.30;1.30;;;8.50;99.90;;;;;;5025351;28;20052;-82
2023/01/08 06:20:36;;;;;;;5.13;1.40;;;8.40;99.90;;;;;;5009137;28;20049;-82
2023/01/08 06:23:01;;;;;;;3.42;1.20;;;8.40;99.90;;;;;;5009760;28;20037;-84
2023/01/08 06:25:28;;;;;;;5.05;1.17;;;8.40;99.90;;;;;;5026667;28;20540;-82
2023/01/08 06:27:54;;;;;;;6.65;1.02;;;8.40;99.90;;;;;;5009604;28;20049;-83
2023/01/08 06:30:20;;;;;;;3.13;1.45;;;9.00;99.90;;;;;;5044415;28;20048;-83
2023/01/08 06:32:45;;;;;;;2.92;1.15;;;8.30;99.90;;;;;;4977184;28;20045;-83
2023/01/08 06:35:11;;;;;;;6.72;1.35;;;8.30;99.90;;;;;;5026254;28;20045;-84
2023/01/08 06:37:37;;;;;;;9.13;2.78;;;9.00;99.90;;;;;;5010267;28;20210;-83
2023/01/08 06:40:02;;;;;;;6.95;1.40;;;8.40;99.90;;;;;;4993087;28;20041;-83
2023/01/08 06:42:28;;;;;;;6.03;1.45;;;8.30;99.90;;;;;;5025717;28;20095;-83
2023/01/08 06:44:54;;;;;;;9.52;1.58;;;8.30;99.90;;;;;;5009062;28;20056;-83
2023/01/08 06:47:19;;;;;;;7.10;1.42;;;8.30;99.90;;;;;;5010059;28;20045;-82
2023/01/08 06:49:45;;;;;;;5.65;1.30;;;8.30;99.90;;;;;;5009562;28;20579;-82
2023/01/08 06:52:11;;;;;;;5.63;1.48;;;7.90;99.90;;;;;;4992806;28;20128;-83
2023/01/08 06:54:37;;;;;;;5.65;1.30;;;8.60;99.90;;;;;;5025676;28;20048;-84
2023/01/08 06:57:02;;;;;;;5.85;1.20;;;8.40;99.90;;;;;;4992798;28;20049;-83
2023/01/08 06:59:28;;;;;;;3.65;1.27;;;8.20;99.90;;;;;;5026130;28;20396;-83
2023/01/08 07:01:54;;;;;;;4.03;1.50;;;8.90;99.90;;;;;;4992337;28;20041;-83
2023/01/08 07:04:20;;;;;;;6.95;1.55;;;8.20;99.90;;;;;;4993194;28;20076;-86
2023/01/08 07:06:46;;;;;;;6.35;1.38;;;8.50;99.90;;;;;;5008974;28;20891;-82
2023/01/08 07:09:13;;;;;;;5.07;1.40;;;8.20;99.90;;;;;;5008721;28;20607;-83
2023/01/08 07:11:40;;;;;;;5.43;1.65;;;8.20;99.90;;;;;;5009511;28;20045;-85
2023/01/08 07:14:06;;;;;;;4.43;1.30;;;9.00;99.90;;;;;;5012957;28;20128;-83
2023/01/08 07:16:32;;;;;;;2.72;1.45;;;8.20;99.90;;;;;;5012711;28;20045;-82
2023/01/08 07:18:57;;;;;;;5.05;1.42;;;8.20;99.90;;;;;;5012371;28;20103;-82
2023/01/08 07:21:23;;;;;;;4.65;1.40;;;8.20;99.90;;;;;;4996574;28;20048;-82
2023/01/08 07:23:49;;;;;;;7.38;1.63;;;8.20;99.90;;;;;;5012156;28;20041;-82
2023/01/08 07:26:16;;;;;;;3.45;1.55;;;8.20;99.90;;;;;;5029245;28;20106;-82
2023/01/08 07:28:42;;;;;;;3.70;1.50;;;8.20;99.90;;;;;;5029229;28;20518;-81
2023/01/08 07:31:07;;;;;;;6.45;1.42;;;8.20;99.90;;;;;;5028731;28;20041;-82
2023/01/08 07:33:34;;;;;;;3.10;1.15;;;8.10;99.90;;;;;;5013271;28;20056;-81
2023/01/08 07:36:00;;;;;;;7.40;1.67;;;8.10;99.90;;;;;;5012837;28;20052;-81
2023/01/08 07:38:26;;;;;;;5.93;1.67;;;8.10;99.90;;;;;;5029782;28;20044;-82
2023/01/08 07:40:51;;;;;;;6.90;1.48;;;8.00;99.90;;;;;;5028249;28;20504;-81
2023/01/08 07:43:17;;;;;;;4.32;1.60;;;8.00;99.90;;;;;;5012548;28;20115;-84
2023/01/08 07:45:44;;;;;;;10.93;1.70;;;8.00;99.90;;;;;;5029036;28;20072;-83
2023/01/08 07:48:14;;;;;;;7.68;1.55;;;8.90;99.90;;;;;;5046918;28;20087;-83
2023/01/08 07:50:40;;;;;;;5.22;1.45;;;7.90;99.90;;;;;;4998313;28;20150;-83
2023/01/08 07:53:06;;;;;;;6.25;1.20;;;8.70;99.90;;;;;;5047318;28;20045;-83
2023/01/08 07:55:32;;;;;;;6.75;1.40;;;7.80;99.90;;;;;;5047352;28;20052;-83
2023/01/08 07:57:57;;;;;;;8.02;1.70;;;8.30;99.90;;;;;;5028137;28;20587;-83
2023/01/08 08:00:23;;;;;;;7.43;1.45;;;7.80;99.90;;;;;;5012365;28;20051;-83
2023/01/08 08:02:49;;;;;;;13.75;1.60;;;8.80;99.90;;;;;;5028939;28;20045;-81
2023/01/08 08:05:16;;;;;;;6.65;1.90;;;8.50;99.90;;;;;;5028764;28;20511;-82
2023/01/08 08:07:42;;;;;;;6.80;1.58;;;7.70;99.90;;;;;;5046452;28;20102;-82
2023/01/08 08:10:10;;;;;;;5.80;1.60;;;7.70;99.90;;;;;;5011836;28;20450;-81
2023/01/08 08:12:36;;;;;;;8.23;1.90;;;8.90;99.90;;;;;;5046746;28;20098;-81
2023/01/08 08:15:02;;;;;;;3.90;1.80;;;7.70;99.90;;;;;;5023865;28;20057;-83
2023/01/08 08:17:28;;;;;;;7.47;2.50;;;7.60;99.90;;;;;;5008626;28;20045;-82
2023/01/08 08:19:54;;;;;;;5.75;1.85;;;8.00;99.90;;;;;;5008396;28;20056;-82
2023/01/08 08:22:19;;;;;;;14.23;2.05;;;7.60;99.90;;;;;;5024934;28;20045;-82
2023/01/08 08:24:45;;;;;;;8.23;1.98;;;7.60;99.90;;;;;;5025108;28;20680;-83
2023/01/08 08:27:11;;;;;;;12.68;2.20;;;8.80;99.90;;;;;;5024701;28;20053;-82
2023/01/08 08:29:36;;;;;;;5.00;2.08;;;8.70;99.90;;;;;;5026605;28;20037;-82
2023/01/08 08:32:02;;;;;;;8.25;1.98;;;8.30;99.90;;;;;;5023848;28;20516;-82
2023/01/08 08:34:28;;;;;;;7.45;2.05;;;7.60;99.90;;;;;;5025042;28;20647;-82
2023/01/08 08:36:54;;;;;;;8.35;2.35;;;8.30;99.90;;;;;;5007744;28;20496;-81
2023/01/08 08:39:19;;;;;;;7.80;1.90;;;7.60;99.90;;;;;;5025423;28;20049;-81
2023/01/08 08:41:45;;;;;;;6.25;2.08;;;7.60;99.90;;;;;;4991987;28;20099;-80
2023/01/08 08:44:11;;;;;;;6.50;2.10;;;8.40;99.90;;;;;;5025191;28;20044;-82
2023/01/08 08:46:37;;;;;;;7.30;1.90;;;8.60;99.90;;;;;;5024356;28;20037;-82
2023/01/08 08:49:02;;;;;;;8.35;2.20;;;7.60;99.90;;;;;;4975831;28;20053;-82
2023/01/08 08:51:28;;;;;;;7.95;1.83;;;7.60;99.90;;;;;;5024410;28;20069;-81
2023/01/08 08:53:54;;;;;;;10.20;2.33;;;7.70;99.90;;;;;;4991308;28;20077;-82
2023/01/08 08:56:19;;;;;;;8.00;1.70;;;8.20;99.90;;;;;;5025809;28;20045;-81
2023/01/08 08:58:45;;;;;;;6.03;1.80;;;7.70;99.90;;;;;;5024252;28;20483;-82
2023/01/08 09:01:11;;;;;;;8.02;1.92;;;8.50;99.90;;;;;;5007576;28;20034;-82
2023/01/08 09:03:37;;;;;;;10.10;1.55;;;8.60;99.90;;;;;;5008191;28;20046;-82
2023/01/08 09:06:03;;;;;;;4.43;1.50;;;8.80;99.90;;;;;;5025715;28;20033;-82
2023/01/08 09:08:29;;;;;;;6.57;1.25;;;7.80;99.90;;;;;;5026089;28;20034;-82
2023/01/08 09:10:55;;;;;;;9.20;1.90;;;7.80;99.90;;;;;;5025395;28;20053;-82
2023/01/08 09:13:21;;;;;;;7.28;1.63;;;8.70;99.90;;;;;;5025786;28;20049;-82
2023/01/08 09:15:46;;;;;;;6.03;1.50;;;8.70;99.90;;;;;;5024412;28;20084;-82
2023/01/08 09:18:12;;;;;;;3.72;1.15;;;7.90;99.90;;;;;;5024053;28;20131;-81
2023/01/08 09:20:38;;;;;;;9.52;1.23;;;7.90;99.90;;;;;;5007437;28;20052;-81
2023/01/08 09:23:03;;;;;;;5.85;1.50;;;8.00;99.90;;;;;;5025237;28;20060;-83
2023/01/08 09:25:30;;;;;;;6.60;1.35;;;8.00;99.90;;;;;;5024306;28;20049;-82
2023/01/08 09:28:05;;;;;;;14.60;1.60;;;8.00;99.90;;;;;;5023388;28;20067;-82
2023/01/08 09:30:32;;;;;;;9.15;2.15;;;8.10;99.90;;;;;;5024282;28;20045;-82
2023/01/08 09:32:58;;;;;;;7.75;1.00;;;8.90;99.90;;;;;;5006952;28;20128;-82
2023/01/08 09:35:24;;;;;;;6.70;1.27;;;8.10;99.90;;;;;;4990744;28;20046;-82
2023/01/08 09:37:52;;;;;;;6.97;1.30;;;8.80;99.90;;;;;;5023902;28;20401;-83
2023/01/08 09:40:19;;;;;;;4.55;1.48;;;8.20;99.90;;;;;;5023271;28;20195;-82
2023/01/08 09:42:51;;;;;;;4.20;1.05;;;8.20;99.90;;;;;;5024832;28;20488;-82
2023/01/08 09:45:25;;;;;;;7.95;0.85;;;8.30;99.90;;;;;;5006319;28;20128;-83
2023/01/08 09:47:51;;;;;;;11.43;2.20;;;8.30;99.90;;;;;;5023176;28;20049;-81
2023/01/08 09:50:18;;;;;;;6.75;1.08;;;8.40;99.90;;;;;;5023062;28;20042;-82
2023/01/08 09:52:44;;;;;;;6.50;1.20;;;8.40;99.90;;;;;;5022743;28;20048;-83
2023/01/08 09:55:15;;;;;;;10.13;1.17;;;8.40;99.90;;;;;;5006927;28;20068;-82
2023/01/08 09:57:42;;;;;;;7.72;0.82;;;8.50;99.90;;;;;;5022628;28;20089;-83
2023/01/08 10:00:27;;;;;;;6.57;1.00;;;8.50;99.90;;;;;;4990745;28;20581;-82
2023/01/08 10:02:54;;;;;;;5.93;1.10;;;8.60;99.90;;;;;;5023301;28;20420;-82
2023/01/08 10:05:20;;;;;;;11.15;1.10;;;8.70;99.90;;;;;;5022971;28;20136;-82
2023/01/08 10:07:46;;;;;;;6.10;1.50;;;8.70;99.90;;;;;;5023144;28;20045;-82
2023/01/08 10:10:22;;;;;;;12.48;1.92;;;9.50;99.90;;;;;;5022472;28;20515;-82
2023/01/08 10:12:49;;;;;;;7.05;1.27;;;8.70;99.90;;;;;;5024590;28;20041;-81
2023/01/08 10:15:17;;;;;;;8.60;1.88;;;9.60;99.90;;;;;;5028681;28;20105;-82
2023/01/08 10:17:46;;;;;;;17.48;3.50;;;8.80;99.90;;;;;;5044036;28;20134;-83
2023/01/08 10:20:20;;;;;;;12.38;1.52;;;8.80;99.90;;;;;;5009333;28;20078;-82
2023/01/08 10:22:47;;;;;;;12.48;1.77;;;8.90;99.90;;;;;;5043696;28;20095;-82
2023/01/08 10:25:20;;;;;;;9.75;2.55;;;8.90;99.90;;;;;;5043894;28;20110;-82
2023/01/08 10:27:52;;;;;;;7.25;1.20;;;9.00;99.90;;;;;;5025691;28;20476;-82
2023/01/08 10:30:30;;;;;;;6.25;1.80;;;9.00;99.90;;;;;;5025994;28;20053;-82
2023/01/08 10:33:02;;;;;;;5.47;1.40;;;9.00;99.90;;;;;;5026120;28;20590;-82
2023/01/08 10:35:34;;;;;;;14.68;1.73;;;9.00;99.90;;;;;;5009130;28;20041;-82
2023/01/08 10:38:00;;;;;;;11.45;1.48;;;9.40;99.90;;;;;;5025538;28;20049;-83
2023/01/08 10:40:29;;;;;;;9.65;1.75;;;9.10;99.90;;;;;;5025019;28;20052;-82
2023/01/08 10:43:04;;;;;;;16.33;1.55;;;9.00;99.90;;;;;;5026120;28;20435;-82
2023/01/08 10:45:30;;;;;;;7.18;1.13;;;9.00;99.90;;;;;;5009316;28;20045;-83
2023/01/08 10:48:03;;;;;;;12.68;2.63;;;9.00;99.90;;;;;;5024711;28;20093;-82
2023/01/08 10:50:32;;;;;;;10.02;1.10;;;9.50;99.90;;;;;;5025493;28;20059;-82
2023/01/08 10:53:03;;;;;;;7.78;1.92;;;9.10;99.90;;;;;;5025175;28;20140;-82
2023/01/08 10:55:38;;;;;;;10.20;2.13;;;9.10;99.90;;;;;;5025549;28;20098;-82
2023/01/08 10:58:10;;;;;;;11.40;1.50;;;9.20;99.90;;;;;;5025638;28;20457;-83
2023/01/08 11:00:36;;;;;;;6.28;1.58;;;9.20;99.90;;;;;;5025792;28;20664;-82
2023/01/08 11:03:07;;;;;;;13.48;2.22;;;9.30;99.90;;;;;;5008927;28;20052;-82
2023/01/08 11:05:41;;;;;;;13.40;2.05;;;9.20;99.90;;;;;;5025697;28;20088;-81
2023/01/08 11:08:16;;;;;;;13.45;1.50;;;9.20;99.90;;;;;;5008438;28;20044;-81
2023/01/08 11:10:51;;;;;;;8.27;1.98;;;9.30;99.90;;;;;;5024197;28;20124;-82
2023/01/08 11:13:19;;;;;;;13.50;2.95;;;9.30;99.90;;;;;;5042864;28;20539;-82
2023/01/08 11:15:45;;;;;;;7.70;1.45;;;9.50;99.90;;;;;;4991540;28;20084;-82
2023/01/08 11:18:21;;;;;;;8.50;1.73;;;9.50;99.90;;;;;;5009162;28;20496;-82
2023/01/08 11:20:48;;;;;;;10.75;3.72;;;9.50;99.90;;;;;;5024954;28;20404;-83
2023/01/08 11:23:16;;;;;;;14.93;1.92;;;9.50;99.90;;;;;;5042273;28;20132;-83
2023/01/08 11:25:53;;;;;;;7.70;2.30;;;9.70;99.90;;;;;;5024990;28;20112;-83
2023/01/08 11:28:27;;;;;;;7.68;1.50;;;9.50;99.90;;;;;;5008174;28;20146;-83
2023/01/08 11:31:01;;;;;;;7.00;1.55;;;9.40;99.90;;;;;;5025422;28;20442;-82
2023/01/08 11:33:32;;;;;;;12.45;2.22;;;9.40;99.90;;;;;;5042764;28;20039;-82
2023/01/08 11:36:18;;;;;;;11.25;1.30;;;9.30;99.90;;;;;;5007939;28;20127;-82
2023/01/08 11:38:44;;;;;;;11.68;1.33;;;9.30;99.90;;;;;;5009061;28;20053;-83
2023/01/08 11:41:35;;;;;;;9.00;1.75;;;9.40;99.90;;;;;;4991695;28;20122;-82
2023/01/08 11:44:43;;;;;;;14.40;2.33;;;9.30;99.90;;;;;;4994547;28;20048;-82
2023/01/08 11:47:47;;;;;;;12.38;0.98;;;9.30;99.90;;;;;;4975669;28;20057;-83
2023/01/08 11:50:53;;;;;;;11.73;1.70;;;9.20;99.90;;;;;;4998782;28;20072;-82
2023/01/08 11:53:41;;;;;;;6.85;1.38;;;9.20;99.90;;;;;;5041630;28;20110;-81
2023/01/08 11:56:26;;;;;;;12.57;2.13;;;9.30;99.90;;;;;;5025255;28;20048;-82
2023/01/08 11:59:10;;;;;;;9.20;1.75;;;9.30;99.90;;;;;;5044462;28;20116;-82
2023/01/08 12:01:56;;;;;;;7.47;1.35;;;9.30;99.90;;;;;;5011093;28;20052;-82
2023/01/08 12:04:25;;;;;;;12.07;1.73;;;9.30;99.90;;;;;;5028850;28;20045;-82
2023/01/08 12:07:05;;;;;;;12.43;1.67;;;9.40;99.90;;;;;;5027641;28;20055;-85
2023/01/08 12:09:45;;;;;;;9.60;2.17;;;9.50;99.90;;;;;;5012114;28;20057;-85
2023/01/08 12:12:43;;;;;;;15.30;3.15;;;9.50;99.90;;;;;;5011128;28;20052;-80
2023/01/08 12:15:22;;;;;;;13.82;2.45;;;9.60;99.90;;;;;;5011578;28;20049;-78
2023/01/08 12:17:54;;;;;;;12.10;2.15;;;9.60;99.90;;;;;;5027967;28;20049;-80
2023/01/08 12:20:38;;;;;;;8.15;1.52;;;9.70;99.90;;;;;;5027520;28;20055;-80
2023/01/08 12:23:06;;;;;;;12.27;2.08;;;9.70;99.90;;;;;;5010901;28;20052;-80
2023/01/08 12:25:44;;;;;;;7.13;1.58;;;9.80;99.90;;;;;;5028345;28;20037;-80
2023/01/08 12:28:22;;;;;;;9.02;1.85;;;9.80;99.90;;;;;;5044851;28;20048;-81
2023/01/08 12:31:12;;;;;;;9.77;1.65;;;9.80;99.90;;;;;;5028217;28;20377;-80
2023/01/08 12:33:49;;;;;;;10.82;1.92;;;9.70;99.90;;;;;;5027637;28;20485;-79
2023/01/08 12:36:24;;;;;;;12.48;2.47;;;9.70;99.90;;;;;;5045356;28;20432;-80
2023/01/08 12:39:08;;;;;;;10.85;1.70;;;9.70;99.90;;;;;;5026965;28;20041;-80
2023/01/08 12:41:35;;;;;;;17.30;1.58;;;9.70;99.90;;;;;;5026925;28;20087;-81
2023/01/08 12:44:04;;;;;;;10.10;1.45;;;9.60;99.90;;;;;;5027442;28;20080;-80
2023/01/08 12:46:35;;;;;;;6.25;1.30;;;9.70;99.90;;;;;;5045559;28;20056;-79
2023/01/08 12:49:05;;;;;;;13.65;1.52;;;9.60;99.90;;;;;;5044626;28;20044;-80
2023/01/08 12:51:58;;;;;;;15.45;3.10;;;9.60;99.90;;;;;;5011113;28;20055;-81
2023/01/08 12:54:44;;;;;;;12.48;1.48;;;9.50;99.90;;;;;;5010211;28;20132;-81
2023/01/08 12:57:18;;;;;;;14.75;1.88;;;9.50;99.90;;;;;;5045266;28;20045;-80
2023/01/08 13:00:02;;;;;;;10.93;1.85;;;9.50;99.90;;;;;;5045371;28;20052;-80
2023/01/08 13:02:45;;;;;;;10.55;1.60;;;9.40;99.90;;;;;;5044353;28;20388;-78
2023/01/08 13:05:17;;;;;;;14.37;3.20;;;9.40;99.90;;;;;;5011824;28;20049;-79
2023/01/08 13:07:52;;;;;;;17.17;2.45;;;10.40;99.90;;;;;;5027155;28;20318;-79
2023/01/08 13:10:40;;;;;;;14.00;3.20;;;9.60;99.90;;;;;;5026250;28;20044;-79
2023/01/08 13:13:27;;;;;;;11.80;1.55;;;9.60;99.90;;;;;;5027486;28;20207;-79